Decoded Metar for KBNA (NASHVILLE in TN, USA) (IATA:BNA) | Meteo·Mobile Aviation Weather
aviador You're here:

KBNA Decoded Metar

NASHVILLE in TN, USA
Report Time2019-03-20 22:53:00
UTC Time2019-03-20 23:22:38
Flight Rules vfr VFR
Wind190° at 08 kt
W.Decomp.*RWY 20: 7.9 kt HW 1 kt LCW
RWY 13: 3.6 kt HW 7.1 kt RCW
W.Rank190° ranks 3
Current wind is above 190° avg. (7.5)
Visibility9999 m
Phenomena:N/A
Clouds:Broken 250 Hf
Expected CloudBase > 8,400 ft AGL from Temp-Dew spread
Ceiling25,000 ft
Temp17°C (ISA +3)
Dew Point-4°C (24% RH)
AAT11.7°C
QNH1017 hPa
Density Alt1,017 ft
Elevation689 ft
Report Wrong Elevation
Raw Report
METAR KBNA 202253Z 19008KT 10SM BKN250 17/M04 A3004 RMK AO2 SLP172
T01721039=

Extra information for KBNA:More info

Metar Taf Metar & Taf Last 4 Metars F.Rules Stats Wind Profile Meteogram Temp Stats Airport Information Weather charts Add Link Nearby VenuesMetar ALERT Operation Metar Decoded Social comments

AIRNAV info for KBNA